createdAt,value
2023-03-28T00:00:50.741Z,0.00
2023-03-28T00:01:50.775Z,0.00
2023-03-28T00:02:50.771Z,0.00
2023-03-28T00:03:50.757Z,0.00
2023-03-28T00:04:50.718Z,0.00
2023-03-28T00:05:50.874Z,0.00
2023-03-28T00:06:50.686Z,0.00
2023-03-28T00:07:50.716Z,0.00
2023-03-28T00:08:50.722Z,0.00
2023-03-28T00:09:50.650Z,0.00
2023-03-28T00:10:50.668Z,0.00
2023-03-28T00:11:52.101Z,0.00
2023-03-28T00:12:50.643Z,0.00
2023-03-28T00:13:50.592Z,0.00
2023-03-28T00:14:50.612Z,0.00
2023-03-28T00:15:50.639Z,0.00
2023-03-28T00:16:50.573Z,0.00
2023-03-28T00:17:50.672Z,0.00
2023-03-28T00:18:50.545Z,0.00
2023-03-28T00:19:50.578Z,0.00
2023-03-28T00:20:50.521Z,0.00
2023-03-28T00:21:50.521Z,0.00
2023-03-28T00:22:50.500Z,0.00
2023-03-28T00:23:50.549Z,0.00
2023-03-28T00:24:50.486Z,0.00
2023-03-28T00:25:50.478Z,0.00
2023-03-28T00:26:50.450Z,0.00
2023-03-28T00:27:50.447Z,0.00
2023-03-28T00:28:50.453Z,0.00
2023-03-28T00:29:50.481Z,0.00
2023-03-28T00:30:50.480Z,0.00
2023-03-28T00:31:50.455Z,0.00
2023-03-28T00:32:50.444Z,0.00
2023-03-28T00:33:50.388Z,0.00
2023-03-28T00:34:50.367Z,0.00
2023-03-28T00:35:50.485Z,0.00
2023-03-28T00:36:50.352Z,0.00
2023-03-28T00:37:50.327Z,0.00
2023-03-28T00:38:50.336Z,0.00
2023-03-28T00:39:50.308Z,0.00
2023-03-28T00:40:50.305Z,0.00
2023-03-28T00:41:50.315Z,0.00
2023-03-28T00:42:50.320Z,0.00
2023-03-28T00:43:50.268Z,0.00
2023-03-28T00:44:50.263Z,0.00
2023-03-28T00:46:02.452Z,0.00
2023-03-28T00:46:51.293Z,0.00
2023-03-28T00:47:52.801Z,0.00
2023-03-28T00:48:50.206Z,0.00
2023-03-28T00:49:50.212Z,0.00
2023-03-28T00:50:50.234Z,0.00
2023-03-28T00:51:50.228Z,0.00
2023-03-28T00:52:50.229Z,0.00
2023-03-28T00:53:50.167Z,0.00
2023-03-28T00:54:50.176Z,0.00
2023-03-28T00:55:50.150Z,0.00
2023-03-28T00:56:50.150Z,0.00
2023-03-28T00:57:50.135Z,0.00
2023-03-28T00:58:50.150Z,0.00
2023-03-28T00:59:50.107Z,0.00
2023-03-28T01:00:50.089Z,0.00
2023-03-28T01:01:50.153Z,0.00
2023-03-28T01:02:50.125Z,0.00
2023-03-28T01:03:50.137Z,0.00
2023-03-28T01:04:50.102Z,0.00
2023-03-28T01:05:50.051Z,0.00
2023-03-28T01:06:50.043Z,0.00
2023-03-28T01:07:50.062Z,0.00
2023-03-28T01:08:49.999Z,0.00
2023-03-28T01:09:49.967Z,0.00
2023-03-28T01:10:50.022Z,0.00
2023-03-28T01:11:49.984Z,0.00
2023-03-28T01:12:49.951Z,0.00
2023-03-28T01:13:49.924Z,0.00
2023-03-28T01:14:50.904Z,0.00
2023-03-28T01:15:49.935Z,0.00
2023-03-28T01:16:49.973Z,0.00
2023-03-28T01:17:49.981Z,0.00
2023-03-28T01:18:49.875Z,0.00
2023-03-28T01:19:49.898Z,0.00
2023-03-28T01:20:49.882Z,0.00
2023-03-28T01:21:49.845Z,0.00
2023-03-28T01:22:57.235Z,0.00
2023-03-28T01:23:50.812Z,0.00
2023-03-28T01:24:49.851Z,0.00
2023-03-28T01:25:49.820Z,0.00
2023-03-28T01:26:49.822Z,0.00
2023-03-28T01:27:49.843Z,0.00
2023-03-28T01:28:50.782Z,0.00
2023-03-28T01:29:49.751Z,0.00
2023-03-28T01:30:49.760Z,0.00
2023-03-28T01:31:49.814Z,0.00
2023-03-28T01:32:49.753Z,0.00
2023-03-28T01:33:49.739Z,0.00
2023-03-28T01:34:49.701Z,0.00
2023-03-28T01:35:49.711Z,0.00
2023-03-28T01:36:49.687Z,0.00
2023-03-28T01:37:49.690Z,0.00
2023-03-28T01:38:49.712Z,0.00
2023-03-28T01:39:49.653Z,0.00
2023-03-28T01:40:50.598Z,0.00
2023-03-28T01:41:49.652Z,0.00
2023-03-28T01:42:49.821Z,0.00
2023-03-28T01:43:49.620Z,0.00
2023-03-28T01:44:49.640Z,0.00
2023-03-28T01:45:49.659Z,0.00
2023-03-28T01:46:49.784Z,0.00
2023-03-28T01:47:49.567Z,0.00
2023-03-28T01:48:49.558Z,0.00
2023-03-28T01:49:49.536Z,0.00
2023-03-28T01:50:49.544Z,0.00
2023-03-28T01:51:49.514Z,0.00
2023-03-28T01:52:49.512Z,0.00
2023-03-28T01:53:49.507Z,0.00
2023-03-28T01:54:49.496Z,0.00
2023-03-28T01:55:49.495Z,0.00
2023-03-28T01:56:49.514Z,0.00
2023-03-28T01:57:49.469Z,0.00
2023-03-28T01:58:49.449Z,0.00
2023-03-28T01:59:49.479Z,0.00
2023-03-28T02:00:49.527Z,0.00
2023-03-28T02:01:49.397Z,0.00
2023-03-28T02:02:50.420Z,0.00
2023-03-28T02:03:49.416Z,0.00
2023-03-28T02:04:49.399Z,0.00
2023-03-28T02:05:49.387Z,0.00
2023-03-28T02:06:49.349Z,0.00
2023-03-28T02:07:49.371Z,0.00
2023-03-28T02:08:49.332Z,0.00
2023-03-28T02:09:49.351Z,0.00
2023-03-28T02:10:49.382Z,0.00
2023-03-28T02:11:50.131Z,0.00
2023-03-28T02:12:50.122Z,0.00
2023-03-28T02:13:49.294Z,0.00
2023-03-28T02:14:49.279Z,0.00
2023-03-28T02:15:49.265Z,0.00
2023-03-28T02:16:49.273Z,0.00
2023-03-28T02:17:49.898Z,0.00
2023-03-28T02:18:49.374Z,0.00
2023-03-28T02:19:49.219Z,0.00
2023-03-28T02:20:49.229Z,0.00
2023-03-28T02:21:49.211Z,0.00
2023-03-28T02:22:49.233Z,0.00
2023-03-28T02:23:49.179Z,0.00
2023-03-28T02:24:54.230Z,0.00
2023-03-28T02:25:49.342Z,0.00
2023-03-28T02:26:49.159Z,0.00
2023-03-28T02:27:49.145Z,0.00
2023-03-28T02:28:49.130Z,0.00
2023-03-28T02:29:49.137Z,0.00
2023-03-28T02:30:50.118Z,0.00
2023-03-28T02:31:49.633Z,0.00
2023-03-28T02:32:49.122Z,0.00
2023-03-28T02:33:49.086Z,0.00
2023-03-28T02:34:49.164Z,0.00
2023-03-28T02:35:49.105Z,0.00
2023-03-28T02:36:49.062Z,0.00
2023-03-28T02:37:49.024Z,0.00
2023-03-28T02:38:49.029Z,0.00
2023-03-28T02:39:49.039Z,0.00
2023-03-28T02:40:48.984Z,0.00
2023-03-28T02:41:49.001Z,0.00
2023-03-28T02:42:48.972Z,0.00
2023-03-28T02:43:48.937Z,0.00
2023-03-28T02:44:48.946Z,0.00
2023-03-28T02:45:48.976Z,0.00
2023-03-28T02:46:48.920Z,0.00
2023-03-28T02:47:48.983Z,0.00
2023-03-28T02:48:48.900Z,0.00
2023-03-28T02:49:50.859Z,0.00
2023-03-28T02:50:48.930Z,0.00
2023-03-28T02:51:48.881Z,0.00
2023-03-28T02:52:48.854Z,0.00
2023-03-28T02:53:48.931Z,0.00
2023-03-28T02:54:48.840Z,0.00
2023-03-28T02:55:48.868Z,0.00
2023-03-28T02:56:48.856Z,0.00
2023-03-28T02:57:48.866Z,0.00
2023-03-28T02:58:48.850Z,0.00
2023-03-28T02:59:48.778Z,0.00
2023-03-28T03:00:48.809Z,0.00
2023-03-28T03:01:48.816Z,0.00
2023-03-28T03:02:50.289Z,0.00
2023-03-28T03:03:48.812Z,0.00
2023-03-28T03:04:50.222Z,0.00
2023-03-28T03:05:48.714Z,0.00
2023-03-28T03:06:49.708Z,0.00
2023-03-28T03:07:48.689Z,0.00
2023-03-28T03:08:50.646Z,0.00
2023-03-28T03:09:48.743Z,0.00
2023-03-28T03:10:48.834Z,0.00
2023-03-28T03:11:48.680Z,0.00
2023-03-28T03:12:48.649Z,0.00
2023-03-28T03:13:48.919Z,0.00
2023-03-28T03:14:48.624Z,0.00
2023-03-28T03:15:48.903Z,0.00
2023-03-28T03:16:48.616Z,0.00
2023-03-28T03:17:48.798Z,0.00
2023-03-28T03:18:49.571Z,0.00
2023-03-28T03:19:48.569Z,0.00
2023-03-28T03:20:48.552Z,0.00
2023-03-28T03:21:48.624Z,0.00
2023-03-28T03:22:49.512Z,0.00
2023-03-28T03:23:48.560Z,0.00
2023-03-28T03:24:48.512Z,0.00
2023-03-28T03:25:48.505Z,0.00
2023-03-28T03:26:48.510Z,0.00
2023-03-28T03:27:48.620Z,0.00
2023-03-28T03:28:48.460Z,0.00
2023-03-28T03:29:48.584Z,0.00
2023-03-28T03:30:48.459Z,0.00
2023-03-28T03:31:48.475Z,0.00
2023-03-28T03:32:48.503Z,0.00
2023-03-28T03:33:48.396Z,0.00
2023-03-28T03:34:48.398Z,0.00
2023-03-28T03:35:48.399Z,0.00
2023-03-28T03:36:48.388Z,0.00
2023-03-28T03:37:49.381Z,0.00
2023-03-28T03:38:48.531Z,0.00
2023-03-28T03:39:48.367Z,0.00
2023-03-28T03:40:48.335Z,0.00
2023-03-28T03:41:48.326Z,0.00
2023-03-28T03:42:49.319Z,0.00
2023-03-28T03:43:48.319Z,0.00
2023-03-28T03:44:49.097Z,0.00
2023-03-28T03:45:48.344Z,0.00
2023-03-28T03:46:48.301Z,0.00
2023-03-28T03:47:48.365Z,0.00
2023-03-28T03:48:49.949Z,0.00
2023-03-28T03:49:48.393Z,0.00
2023-03-28T03:50:48.252Z,0.00
2023-03-28T03:51:48.234Z,0.00
2023-03-28T03:52:49.664Z,0.00
2023-03-28T03:53:49.164Z,0.00
2023-03-28T03:54:48.420Z,0.00
2023-03-28T03:55:49.156Z,0.00
2023-03-28T03:56:49.165Z,0.00
2023-03-28T03:57:49.616Z,0.00
2023-03-28T03:58:48.287Z,0.00
2023-03-28T03:59:48.155Z,0.00
2023-03-28T04:00:49.047Z,0.00
2023-03-28T04:01:48.132Z,0.00
2023-03-28T04:02:48.253Z,0.00
2023-03-28T04:03:49.148Z,0.00
2023-03-28T04:04:48.064Z,0.00
2023-03-28T04:05:49.517Z,0.00
2023-03-28T04:06:48.083Z,0.00
2023-03-28T04:07:48.030Z,0.00
2023-03-28T04:08:48.031Z,0.00
2023-03-28T04:09:48.546Z,0.00
2023-03-28T04:10:48.013Z,0.00
2023-03-28T04:11:47.978Z,0.00
2023-03-28T04:12:48.762Z,0.00
2023-03-28T04:13:48.009Z,0.00
2023-03-28T04:14:48.979Z,0.00
2023-03-28T04:15:47.994Z,0.00
2023-03-28T04:16:47.975Z,0.00
2023-03-28T04:17:47.985Z,0.00
2023-03-28T04:18:47.922Z,0.00
2023-03-28T04:19:47.899Z,0.00
2023-03-28T04:20:47.902Z,0.00
2023-03-28T04:21:47.875Z,0.00
2023-03-28T04:22:47.891Z,0.00
2023-03-28T04:23:47.867Z,0.00
2023-03-28T04:24:47.859Z,0.00
2023-03-28T04:25:47.818Z,0.00
2023-03-28T04:26:47.807Z,0.00
2023-03-28T04:27:47.801Z,0.00
2023-03-28T04:28:47.828Z,0.00
2023-03-28T04:29:47.797Z,0.00
2023-03-28T04:30:47.797Z,0.00
2023-03-28T04:31:47.824Z,0.00
2023-03-28T04:32:47.900Z,0.00
2023-03-28T04:33:48.698Z,0.00
2023-03-28T04:34:47.754Z,0.00
2023-03-28T04:35:47.731Z,0.00
2023-03-28T04:36:47.720Z,0.00
2023-03-28T04:37:47.700Z,0.00
2023-03-28T04:38:47.723Z,0.00
2023-03-28T04:39:47.690Z,0.00
2023-03-28T04:40:47.659Z,0.00
2023-03-28T04:41:47.679Z,0.00
2023-03-28T04:42:47.724Z,0.00
2023-03-28T04:43:47.639Z,0.00
2023-03-28T04:44:47.617Z,0.00
2023-03-28T04:45:48.233Z,0.00
2023-03-28T04:46:47.589Z,0.00
2023-03-28T04:47:47.597Z,0.00
2023-03-28T04:48:47.615Z,0.00
2023-03-28T04:49:47.613Z,0.00
2023-03-28T04:50:47.618Z,0.00
2023-03-28T04:51:47.599Z,0.00
2023-03-28T04:52:47.539Z,0.00
2023-03-28T04:53:47.521Z,4.00
2023-03-28T04:54:47.566Z,4.00
2023-03-28T04:55:47.522Z,0.00
2023-03-28T04:56:47.560Z,4.00
2023-03-28T04:57:47.498Z,4.00
2023-03-28T04:58:47.509Z,4.00
2023-03-28T04:59:47.474Z,4.00
2023-03-28T05:00:47.480Z,4.00
2023-03-28T05:01:47.578Z,8.00
2023-03-28T05:02:47.469Z,8.00
2023-03-28T05:03:47.497Z,8.00
2023-03-28T05:04:47.408Z,8.00
2023-03-28T05:05:47.384Z,8.00
2023-03-28T05:06:47.398Z,12.00
2023-03-28T05:07:47.386Z,16.00
2023-03-28T05:08:47.358Z,20.00
2023-03-28T05:09:47.398Z,20.00
2023-03-28T05:10:47.372Z,24.00
2023-03-28T05:11:48.128Z,28.00
2023-03-28T05:12:47.317Z,32.00
2023-03-28T05:13:47.313Z,32.00
2023-03-28T05:14:47.350Z,40.00
2023-03-28T05:15:47.295Z,44.00
2023-03-28T05:16:48.345Z,48.00
2023-03-28T05:17:47.344Z,52.00
2023-03-28T05:18:47.244Z,60.00
2023-03-28T05:19:47.258Z,68.00
2023-03-28T05:20:47.249Z,72.00
2023-03-28T05:21:47.231Z,76.00
2023-03-28T05:22:47.226Z,88.00
2023-03-28T05:23:52.308Z,96.00
2023-03-28T05:24:48.212Z,100.00
2023-03-28T05:25:47.158Z,112.00
2023-03-28T05:26:47.159Z,120.00
2023-03-28T05:27:48.111Z,128.00
2023-03-28T05:28:47.182Z,136.00
2023-03-28T05:29:48.131Z,148.00
2023-03-28T05:30:47.128Z,156.00
2023-03-28T05:31:47.196Z,164.00
2023-03-28T05:32:48.112Z,176.00
2023-03-28T05:33:47.087Z,184.00
2023-03-28T05:34:47.101Z,196.00
2023-03-28T05:35:47.086Z,204.00
2023-03-28T05:36:47.032Z,212.00
2023-03-28T05:37:47.275Z,224.00
2023-03-28T05:38:47.020Z,232.00
2023-03-28T05:39:47.034Z,244.00
2023-03-28T05:40:47.040Z,252.00
2023-03-28T05:41:46.995Z,260.00
2023-03-28T05:42:47.006Z,272.00
2023-03-28T05:43:46.980Z,284.00
2023-03-28T05:44:46.996Z,292.00
2023-03-28T05:45:47.005Z,304.00
2023-03-28T05:46:48.398Z,312.00
2023-03-28T05:47:48.143Z,324.00
2023-03-28T05:48:49.500Z,332.00
2023-03-28T05:49:46.945Z,344.00
2023-03-28T05:50:46.893Z,352.00
2023-03-28T05:51:46.908Z,364.00
2023-03-28T05:52:47.133Z,372.00
2023-03-28T05:53:46.898Z,384.00
2023-03-28T05:54:50.535Z,392.00
2023-03-28T05:55:46.845Z,400.00
2023-03-28T05:56:46.850Z,408.00
2023-03-28T05:57:46.882Z,420.00
2023-03-28T05:58:46.899Z,428.00
2023-03-28T05:59:46.834Z,440.00
2023-03-28T06:00:46.798Z,448.00
2023-03-28T06:01:46.820Z,456.00
2023-03-28T06:02:46.864Z,468.00
2023-03-28T06:03:46.870Z,480.00
2023-03-28T06:04:46.781Z,488.00
2023-03-28T06:05:46.755Z,496.00
2023-03-28T06:06:46.726Z,512.00
2023-03-28T06:07:46.768Z,520.00
2023-03-28T06:08:46.717Z,528.00
2023-03-28T06:09:46.869Z,532.00
2023-03-28T06:10:46.723Z,540.00
2023-03-28T06:11:46.683Z,552.00
2023-03-28T06:12:46.663Z,560.00
2023-03-28T06:13:48.129Z,568.00
2023-03-28T06:14:46.662Z,576.00
2023-03-28T06:15:46.700Z,584.00
2023-03-28T06:16:46.627Z,588.00
2023-03-28T06:17:46.609Z,596.00
2023-03-28T06:18:46.572Z,608.00
2023-03-28T06:19:46.611Z,620.00
2023-03-28T06:20:46.642Z,632.00
2023-03-28T06:21:46.586Z,644.00
2023-03-28T06:22:46.541Z,652.00
2023-03-28T06:23:46.676Z,668.00
2023-03-28T06:24:46.560Z,680.00
2023-03-28T06:25:46.532Z,688.00
2023-03-28T06:26:46.497Z,696.00
2023-03-28T06:27:46.507Z,700.00
2023-03-28T06:28:46.475Z,696.00
2023-03-28T06:29:46.477Z,700.00
2023-03-28T06:30:46.457Z,700.00
2023-03-28T06:31:46.522Z,700.00
2023-03-28T06:32:46.537Z,700.00
2023-03-28T06:33:46.434Z,688.00
2023-03-28T06:34:47.906Z,692.00
2023-03-28T06:35:46.402Z,688.00
2023-03-28T06:36:46.426Z,684.00
2023-03-28T06:37:46.408Z,676.00
2023-03-28T06:38:46.384Z,684.00
2023-03-28T06:39:46.374Z,704.00
2023-03-28T06:40:46.399Z,716.00
2023-03-28T06:41:46.372Z,724.00
2023-03-28T06:42:46.398Z,724.00
2023-03-28T06:43:46.321Z,724.00
2023-03-28T06:44:47.349Z,712.00
2023-03-28T06:45:46.616Z,732.00
2023-03-28T06:46:46.336Z,736.00
2023-03-28T06:47:46.298Z,740.00
2023-03-28T06:48:46.303Z,752.00
2023-03-28T06:49:47.827Z,756.00
2023-03-28T06:50:46.299Z,764.00
2023-03-28T06:51:47.352Z,784.00
2023-03-28T06:52:46.214Z,820.00
2023-03-28T06:53:46.266Z,836.00
2023-03-28T06:54:48.493Z,832.00
2023-03-28T06:55:46.178Z,820.00
2023-03-28T06:56:46.219Z,792.00
2023-03-28T06:57:46.231Z,808.00
2023-03-28T06:58:46.162Z,808.00
2023-03-28T06:59:46.175Z,764.00
2023-03-28T07:00:46.131Z,768.00
2023-03-28T07:01:46.165Z,764.00
2023-03-28T07:02:46.896Z,772.00
2023-03-28T07:03:46.306Z,792.00
2023-03-28T07:04:46.092Z,796.00
2023-03-28T07:05:46.082Z,792.00
2023-03-28T07:06:46.088Z,796.00
2023-03-28T07:07:46.069Z,800.00
2023-03-28T07:08:46.056Z,804.00
2023-03-28T07:09:46.055Z,808.00
2023-03-28T07:10:47.508Z,808.00
2023-03-28T07:11:46.023Z,832.00
2023-03-28T07:12:46.046Z,840.00
2023-03-28T07:13:45.996Z,856.00
2023-03-28T07:14:45.989Z,848.00
2023-03-28T07:15:45.996Z,860.00
2023-03-28T07:16:46.053Z,868.00
2023-03-28T07:17:46.001Z,872.00
2023-03-28T07:18:45.936Z,872.00
2023-03-28T07:19:45.941Z,908.00
2023-03-28T07:20:54.745Z,912.00
2023-03-28T07:21:46.900Z,904.00
2023-03-28T07:22:46.064Z,900.00
2023-03-28T07:23:45.895Z,900.00
2023-03-28T07:24:45.867Z,944.00
2023-03-28T07:25:45.851Z,964.00
2023-03-28T07:26:45.844Z,964.00
2023-03-28T07:27:45.848Z,960.00
2023-03-28T07:28:45.857Z,980.00
2023-03-28T07:29:45.810Z,1008.00
2023-03-28T07:30:45.803Z,1020.00
2023-03-28T07:31:47.625Z,1032.00
2023-03-28T07:33:45.861Z,1060.00
2023-03-28T07:34:45.771Z,1092.00
2023-03-28T07:35:45.774Z,1136.00
2023-03-28T07:36:45.742Z,1168.00
2023-03-28T07:37:45.762Z,1204.00
2023-03-28T07:38:48.419Z,1236.00
2023-03-28T07:39:45.710Z,1272.00
2023-03-28T07:40:45.705Z,1264.00
2023-03-28T07:41:47.123Z,1304.00
2023-03-28T07:42:47.112Z,1336.00
2023-03-28T07:43:45.679Z,1396.00
2023-03-28T07:44:45.763Z,1436.00
2023-03-28T07:45:45.762Z,1480.00
2023-03-28T07:46:47.176Z,1484.00
2023-03-28T07:47:47.100Z,1468.00
2023-03-28T07:48:45.618Z,1448.00
2023-03-28T07:49:45.596Z,1468.00
2023-03-28T07:50:45.606Z,1488.00
2023-03-28T07:51:45.591Z,1484.00
2023-03-28T07:52:47.021Z,1492.00
2023-03-28T07:53:46.804Z,1492.00
2023-03-28T07:54:45.578Z,1484.00
2023-03-28T07:55:54.262Z,1508.00
2023-03-28T07:56:46.552Z,1524.00
2023-03-28T07:57:45.537Z,1540.00
2023-03-28T07:58:45.608Z,1528.00
2023-03-28T07:59:45.477Z,1504.00
2023-03-28T08:00:45.497Z,1516.00
2023-03-28T08:01:45.468Z,1540.00
2023-03-28T08:02:45.778Z,1552.00
2023-03-28T08:03:45.607Z,1572.00
2023-03-28T08:04:45.414Z,1604.00
2023-03-28T08:05:45.474Z,1628.00
2023-03-28T08:06:45.405Z,1644.00
2023-03-28T08:07:45.394Z,1636.00
2023-03-28T08:08:45.365Z,1628.00
2023-03-28T08:09:45.422Z,1592.00
2023-03-28T08:10:45.384Z,1536.00
2023-03-28T08:11:45.626Z,1500.00
2023-03-28T08:12:45.452Z,1464.00
2023-03-28T08:13:45.646Z,1404.00
2023-03-28T08:14:46.031Z,1360.00
2023-03-28T08:15:45.603Z,1324.00
2023-03-28T08:16:45.369Z,1296.00
2023-03-28T08:17:46.825Z,1256.00
2023-03-28T08:18:48.729Z,1248.00
2023-03-28T08:19:46.314Z,1236.00
2023-03-28T08:20:45.496Z,1220.00
2023-03-28T08:21:45.231Z,1252.00
2023-03-28T08:22:46.766Z,1272.00
2023-03-28T08:23:45.955Z,1264.00
2023-03-28T08:24:45.222Z,1280.00
2023-03-28T08:25:46.038Z,1308.00
2023-03-28T08:26:46.730Z,1336.00
2023-03-28T08:27:46.690Z,1372.00
2023-03-28T08:28:45.724Z,1420.00
2023-03-28T08:29:47.079Z,1508.00
2023-03-28T08:30:47.147Z,1596.00
2023-03-28T08:31:46.104Z,1576.00
2023-03-28T08:32:48.726Z,1608.00
2023-03-28T08:33:45.139Z,1652.00
2023-03-28T08:34:45.882Z,1684.00
2023-03-28T08:35:45.189Z,1736.00
2023-03-28T08:36:45.149Z,1576.00
2023-03-28T08:37:45.061Z,1568.00
2023-03-28T08:38:45.066Z,1568.00
2023-03-28T08:39:45.042Z,1484.00
2023-03-28T08:40:46.006Z,1572.00
2023-03-28T08:41:45.067Z,1600.00
2023-03-28T08:42:45.049Z,1652.00
2023-03-28T08:43:46.530Z,1692.00
2023-03-28T08:44:47.234Z,1800.00
2023-03-28T08:45:44.969Z,1888.00
2023-03-28T08:46:45.978Z,1968.00
2023-03-28T08:47:46.439Z,2072.00
2023-03-28T08:48:45.066Z,2120.00
2023-03-28T08:49:44.980Z,2160.00
2023-03-28T08:50:46.862Z,2132.00
2023-03-28T08:51:44.921Z,2100.00
2023-03-28T08:52:46.349Z,2128.00
2023-03-28T08:53:45.362Z,2104.00
2023-03-28T08:54:45.200Z,2100.00
2023-03-28T08:55:44.923Z,2104.00
2023-03-28T08:56:45.632Z,2112.00
2023-03-28T08:57:44.867Z,2144.00
2023-03-28T08:58:46.295Z,2168.00
2023-03-28T08:59:44.809Z,2200.00
2023-03-28T09:00:45.778Z,2308.00
2023-03-28T09:01:46.332Z,2336.00
2023-03-28T09:02:45.095Z,2264.00
2023-03-28T09:03:46.379Z,2232.00
2023-03-28T09:04:45.194Z,2184.00
2023-03-28T09:05:45.336Z,2192.00
2023-03-28T09:06:45.282Z,2172.00
2023-03-28T09:07:45.416Z,2224.00
2023-03-28T09:08:45.174Z,2296.00
2023-03-28T09:09:44.711Z,2528.00
2023-03-28T09:10:44.711Z,2916.00
2023-03-28T09:11:44.719Z,3204.00
2023-03-28T09:12:44.724Z,3380.00
2023-03-28T09:13:44.666Z,3444.00
2023-03-28T09:14:46.158Z,3552.00
2023-03-28T09:15:44.679Z,3692.00
2023-03-28T09:16:45.658Z,3724.00
2023-03-28T09:17:44.640Z,3708.00
2023-03-28T09:18:44.612Z,3812.00
2023-03-28T09:19:48.706Z,3708.00
2023-03-28T09:20:44.617Z,3544.00
2023-03-28T09:21:46.024Z,3592.00
2023-03-28T09:22:44.592Z,3780.00
2023-03-28T09:23:44.530Z,3760.00
2023-03-28T09:24:44.546Z,3732.00
2023-03-28T09:25:44.589Z,3964.00
2023-03-28T09:26:44.592Z,4060.00
2023-03-28T09:27:44.567Z,4108.00
2023-03-28T09:28:44.499Z,4092.00
2023-03-28T09:29:44.467Z,3924.00
2023-03-28T09:30:44.477Z,3912.00
2023-03-28T09:31:44.500Z,4020.00
2023-03-28T09:32:45.318Z,4356.00
2023-03-28T09:33:45.916Z,4524.00
2023-03-28T09:34:44.431Z,5276.00
2023-03-28T09:35:44.454Z,5872.00
2023-03-28T09:36:48.830Z,5264.00
2023-03-28T09:37:45.423Z,4696.00
2023-03-28T09:38:44.421Z,4824.00
2023-03-28T09:39:44.349Z,4832.00
2023-03-28T09:40:44.376Z,4408.00
2023-03-28T09:41:44.343Z,4380.00
2023-03-28T09:42:44.390Z,4492.00
2023-03-28T09:43:44.348Z,4616.00
2023-03-28T09:44:54.103Z,4024.00
2023-03-28T09:45:45.329Z,3808.00
2023-03-28T09:46:44.300Z,3624.00
2023-03-28T09:47:44.407Z,3496.00
2023-03-28T09:48:44.414Z,3692.00
2023-03-28T09:49:44.298Z,4020.00
2023-03-28T09:50:44.253Z,4040.00
2023-03-28T09:51:44.300Z,3760.00
2023-03-28T09:52:44.221Z,3608.00
2023-03-28T09:53:44.210Z,4076.00
2023-03-28T09:54:44.203Z,4264.00
2023-03-28T09:55:54.663Z,3740.00
2023-03-28T09:56:45.263Z,3624.00
2023-03-28T09:57:44.514Z,3132.00
2023-03-28T09:58:44.477Z,2928.00
2023-03-28T09:59:44.148Z,3096.00
2023-03-28T10:00:44.418Z,3288.00
2023-03-28T10:01:44.672Z,3140.00
2023-03-28T10:02:44.945Z,3060.00
2023-03-28T10:03:44.136Z,3100.00
2023-03-28T10:04:44.179Z,3060.00
2023-03-28T10:05:44.107Z,3320.00
2023-03-28T10:06:44.063Z,3456.00
2023-03-28T10:07:44.068Z,3480.00
2023-03-28T10:08:44.352Z,3556.00
2023-03-28T10:09:44.035Z,3808.00
2023-03-28T10:10:44.068Z,3876.00
2023-03-28T10:11:44.140Z,3840.00
2023-03-28T10:12:44.011Z,3984.00
2023-03-28T10:13:43.992Z,4200.00
2023-03-28T10:14:45.439Z,4320.00
2023-03-28T10:15:43.981Z,4388.00
2023-03-28T10:16:44.254Z,4420.00
2023-03-28T10:17:43.988Z,4424.00
2023-03-28T10:18:43.948Z,4448.00
2023-03-28T10:19:45.374Z,4456.00
2023-03-28T10:20:43.911Z,4456.00
2023-03-28T10:21:44.096Z,4440.00
2023-03-28T10:22:43.925Z,4428.00
2023-03-28T10:23:43.919Z,4416.00
2023-03-28T10:24:43.948Z,4416.00
2023-03-28T10:25:43.874Z,4424.00
2023-03-28T10:26:43.860Z,4484.00
2023-03-28T10:27:43.861Z,4524.00
2023-03-28T10:28:43.818Z,4548.00
2023-03-28T10:29:43.795Z,4536.00
2023-03-28T10:30:43.837Z,4540.00
2023-03-28T10:31:44.840Z,4580.00
2023-03-28T10:32:45.274Z,4616.00
2023-03-28T10:33:43.824Z,4648.00
2023-03-28T10:34:43.834Z,4520.00
2023-03-28T10:35:43.771Z,4640.00
2023-03-28T10:36:43.735Z,4640.00
2023-03-28T10:37:43.716Z,4652.00
2023-03-28T10:38:43.699Z,4688.00
2023-03-28T10:39:43.707Z,4752.00
2023-03-28T10:40:43.752Z,4788.00
2023-03-28T10:41:43.748Z,4812.00
2023-03-28T10:42:43.666Z,4864.00
2023-03-28T10:43:43.647Z,4960.00
2023-03-28T10:44:43.665Z,5028.00
2023-03-28T10:45:43.670Z,5124.00
2023-03-28T10:46:43.643Z,5216.00
2023-03-28T10:47:43.611Z,5268.00
2023-03-28T10:48:43.617Z,5320.00
2023-03-28T10:49:43.580Z,5396.00
2023-03-28T10:50:43.583Z,5452.00
2023-03-28T10:51:43.608Z,5504.00
2023-03-28T10:52:43.534Z,5524.00
2023-03-28T10:53:43.548Z,5540.00
2023-03-28T10:54:43.568Z,5584.00
2023-03-28T10:55:43.527Z,5668.00
2023-03-28T10:56:43.533Z,5692.00
2023-03-28T10:57:43.480Z,5700.00
2023-03-28T10:58:43.489Z,5724.00
2023-03-28T10:59:43.460Z,5732.00
2023-03-28T11:00:43.471Z,5708.00
2023-03-28T11:01:43.497Z,5640.00
2023-03-28T11:02:43.566Z,5624.00
2023-03-28T11:03:43.503Z,5668.00
2023-03-28T11:04:43.418Z,5724.00
2023-03-28T11:05:44.337Z,5704.00
2023-03-28T11:06:43.428Z,5600.00
2023-03-28T11:07:44.955Z,5616.00
2023-03-28T11:08:43.384Z,5648.00
2023-03-28T11:09:43.362Z,5728.00
2023-03-28T11:10:43.724Z,5812.00
2023-03-28T11:11:44.849Z,5856.00
2023-03-28T11:12:54.160Z,5816.00
2023-03-28T11:13:44.357Z,5784.00
2023-03-28T11:14:43.302Z,5804.00
2023-03-28T11:15:43.347Z,5872.00
2023-03-28T11:16:43.324Z,5892.00
2023-03-28T11:17:44.056Z,5784.00
2023-03-28T11:18:43.264Z,5724.00
2023-03-28T11:19:43.300Z,5828.00
2023-03-28T11:20:44.723Z,5800.00
2023-03-28T11:21:43.235Z,5800.00
2023-03-28T11:22:52.265Z,5840.00
2023-03-28T11:23:44.221Z,5912.00
2023-03-28T11:24:43.261Z,5964.00
2023-03-28T11:25:43.198Z,6088.00
2023-03-28T11:26:43.185Z,6224.00
2023-03-28T11:27:43.169Z,6344.00
2023-03-28T11:28:45.350Z,6356.00
2023-03-28T11:29:44.318Z,6280.00
2023-03-28T11:30:43.139Z,6272.00
2023-03-28T11:31:43.247Z,6360.00
2023-03-28T11:32:43.190Z,6484.00
2023-03-28T11:33:43.167Z,6676.00
2023-03-28T11:34:43.077Z,6760.00
2023-03-28T11:35:43.141Z,6748.00
2023-03-28T11:36:43.081Z,6748.00
2023-03-28T11:37:43.086Z,6772.00
2023-03-28T11:38:43.059Z,6672.00
2023-03-28T11:39:43.050Z,6592.00
2023-03-28T11:40:43.165Z,6592.00
2023-03-28T11:41:43.036Z,6584.00
2023-03-28T11:42:43.015Z,6568.00
2023-03-28T11:43:42.991Z,6568.00
2023-03-28T11:44:42.978Z,6560.00
2023-03-28T11:45:52.184Z,6528.00
2023-03-28T11:46:44.051Z,6444.00
2023-03-28T11:47:43.010Z,6304.00
2023-03-28T11:48:42.924Z,6232.00
2023-03-28T11:49:42.911Z,6300.00
2023-03-28T11:50:42.894Z,6360.00
2023-03-28T11:51:42.939Z,6456.00
2023-03-28T11:52:42.919Z,6500.00
2023-03-28T11:53:42.858Z,6564.00
2023-03-28T11:54:42.876Z,6620.00
2023-03-28T11:55:42.860Z,6680.00
2023-03-28T11:56:42.893Z,6728.00
2023-03-28T11:57:42.877Z,6752.00
2023-03-28T11:58:42.834Z,6764.00
2023-03-28T11:59:42.805Z,6772.00
2023-03-28T12:00:42.892Z,6788.00
2023-03-28T12:01:42.838Z,6808.00
2023-03-28T12:02:42.806Z,6852.00
2023-03-28T12:03:42.897Z,6972.00
2023-03-28T12:04:42.760Z,7120.00
2023-03-28T12:05:42.797Z,7248.00
2023-03-28T12:06:52.258Z,7452.00
2023-03-28T12:07:43.769Z,7636.00
2023-03-28T12:08:42.694Z,7724.00
2023-03-28T12:09:42.694Z,7740.00
2023-03-28T12:10:42.664Z,7740.00
2023-03-28T12:11:42.653Z,7728.00
2023-03-28T12:12:42.652Z,7668.00
2023-03-28T12:13:46.229Z,7632.00
2023-03-28T12:14:43.678Z,7536.00
2023-03-28T12:15:42.633Z,7488.00
2023-03-28T12:16:42.681Z,7324.00
2023-03-28T12:17:42.612Z,7044.00
2023-03-28T12:18:42.654Z,6720.00
2023-03-28T12:19:42.605Z,6336.00
2023-03-28T12:20:42.565Z,6036.00
2023-03-28T12:21:43.423Z,5880.00
2023-03-28T12:22:42.537Z,5688.00
2023-03-28T12:23:42.509Z,5564.00
2023-03-28T12:24:44.064Z,5588.00
2023-03-28T12:25:42.505Z,5876.00
2023-03-28T12:26:42.609Z,6576.00
2023-03-28T12:27:42.497Z,7412.00
2023-03-28T12:28:42.479Z,7736.00
2023-03-28T12:29:42.473Z,9184.00
2023-03-28T12:30:42.481Z,10496.00
2023-03-28T12:31:42.461Z,10800.00
2023-03-28T12:32:42.527Z,11264.00
2023-03-28T12:33:42.407Z,12516.00
2023-03-28T12:34:42.415Z,12440.00
2023-03-28T12:35:42.498Z,14160.00
2023-03-28T12:36:42.434Z,14612.00
2023-03-28T12:37:43.311Z,16832.00
2023-03-28T12:38:42.378Z,26432.00
2023-03-28T12:39:42.338Z,33888.00